sensor_id;sensor_type;location;lat;lon;timestamp;P1;durP1;ratioP1;P2;durP2;ratioP2
29402;SDS011;16382;59.942;30.472;2023-05-07T00:00:11;10.98;;;4.75;;
29402;SDS011;16382;59.942;30.472;2023-05-07T00:02:42;7.90;;;3.97;;
29402;SDS011;16382;59.942;30.472;2023-05-07T00:05:10;6.82;;;3.80;;
29402;SDS011;16382;59.942;30.472;2023-05-07T00:07:37;6.70;;;3.95;;
29402;SDS011;16382;59.942;30.472;2023-05-07T00:10:05;6.40;;;3.60;;
29402;SDS011;16382;59.942;30.472;2023-05-07T00:12:33;7.30;;;3.78;;
29402;SDS011;16382;59.942;30.472;2023-05-07T00:15:01;4.32;;;3.53;;
29402;SDS011;16382;59.942;30.472;2023-05-07T00:17:33;5.43;;;3.90;;
29402;SDS011;16382;59.942;30.472;2023-05-07T00:20:02;7.60;;;3.50;;
29402;SDS011;16382;59.942;30.472;2023-05-07T00:22:32;4.28;;;3.38;;
29402;SDS011;16382;59.942;30.472;2023-05-07T00:25:00;5.13;;;3.60;;
29402;SDS011;16382;59.942;30.472;2023-05-07T00:27:32;5.70;;;2.97;;
29402;SDS011;16382;59.942;30.472;2023-05-07T00:29:59;5.85;;;4.45;;
29402;SDS011;16382;59.942;30.472;2023-05-07T00:32:33;6.85;;;3.83;;
29402;SDS011;16382;59.942;30.472;2023-05-07T00:35:04;5.28;;;3.70;;
29402;SDS011;16382;59.942;30.472;2023-05-07T00:37:32;5.88;;;3.78;;
29402;SDS011;16382;59.942;30.472;2023-05-07T00:39:59;9.35;;;4.38;;
29402;SDS011;16382;59.942;30.472;2023-05-07T00:42:29;11.65;;;4.30;;
29402;SDS011;16382;59.942;30.472;2023-05-07T00:44:57;6.65;;;3.63;;
29402;SDS011;16382;59.942;30.472;2023-05-07T00:47:25;5.88;;;4.05;;
29402;SDS011;16382;59.942;30.472;2023-05-07T00:49:52;4.93;;;4.05;;
29402;SDS011;16382;59.942;30.472;2023-05-07T00:52:21;4.63;;;4.10;;
29402;SDS011;16382;59.942;30.472;2023-05-07T00:54:52;7.60;;;4.73;;
29402;SDS011;16382;59.942;30.472;2023-05-07T00:57:20;6.88;;;4.60;;
29402;SDS011;16382;59.942;30.472;2023-05-07T00:59:49;7.80;;;4.07;;
29402;SDS011;16382;59.942;30.472;2023-05-07T01:02:18;6.60;;;4.05;;
29402;SDS011;16382;59.942;30.472;2023-05-07T01:04:46;8.77;;;5.30;;
29402;SDS011;16382;59.942;30.472;2023-05-07T01:07:13;6.25;;;4.53;;
29402;SDS011;16382;59.942;30.472;2023-05-07T01:09:42;5.95;;;4.10;;
29402;SDS011;16382;59.942;30.472;2023-05-07T01:12:10;5.32;;;4.25;;
29402;SDS011;16382;59.942;30.472;2023-05-07T01:14:37;6.45;;;4.40;;
29402;SDS011;16382;59.942;30.472;2023-05-07T01:17:05;6.53;;;4.30;;
29402;SDS011;16382;59.942;30.472;2023-05-07T01:19:33;4.22;;;3.80;;
29402;SDS011;16382;59.942;30.472;2023-05-07T01:22:02;6.53;;;4.22;;
29402;SDS011;16382;59.942;30.472;2023-05-07T01:24:43;6.82;;;4.32;;
29402;SDS011;16382;59.942;30.472;2023-05-07T01:27:12;8.45;;;4.82;;
29402;SDS011;16382;59.942;30.472;2023-05-07T01:29:41;7.00;;;4.35;;
29402;SDS011;16382;59.942;30.472;2023-05-07T01:32:08;6.38;;;4.05;;
29402;SDS011;16382;59.942;30.472;2023-05-07T01:34:36;4.95;;;3.92;;
29402;SDS011;16382;59.942;30.472;2023-05-07T01:37:04;5.18;;;3.60;;
29402;SDS011;16382;59.942;30.472;2023-05-07T01:39:31;8.80;;;4.07;;
29402;SDS011;16382;59.942;30.472;2023-05-07T01:42:01;8.18;;;4.25;;
29402;SDS011;16382;59.942;30.472;2023-05-07T01:44:28;4.45;;;3.17;;
29402;SDS011;16382;59.942;30.472;2023-05-07T01:46:56;4.13;;;3.03;;
29402;SDS011;16382;59.942;30.472;2023-05-07T01:49:24;3.53;;;3.00;;
29402;SDS011;16382;59.942;30.472;2023-05-07T01:51:52;5.25;;;3.22;;
29402;SDS011;16382;59.942;30.472;2023-05-07T01:54:24;4.93;;;3.28;;
29402;SDS011;16382;59.942;30.472;2023-05-07T01:59:24;5.47;;;3.25;;
29402;SDS011;16382;59.942;30.472;2023-05-07T02:01:51;4.75;;;3.28;;
29402;SDS011;16382;59.942;30.472;2023-05-07T02:04:18;4.82;;;3.25;;
29402;SDS011;16382;59.942;30.472;2023-05-07T02:06:46;7.32;;;3.08;;
29402;SDS011;16382;59.942;30.472;2023-05-07T02:09:15;6.70;;;3.20;;
29402;SDS011;16382;59.942;30.472;2023-05-07T02:11:44;5.53;;;2.92;;
29402;SDS011;16382;59.942;30.472;2023-05-07T02:14:12;6.35;;;2.78;;
29402;SDS011;16382;59.942;30.472;2023-05-07T02:16:41;3.35;;;2.70;;
29402;SDS011;16382;59.942;30.472;2023-05-07T02:19:11;3.33;;;2.50;;
29402;SDS011;16382;59.942;30.472;2023-05-07T02:21:38;4.95;;;2.85;;
29402;SDS011;16382;59.942;30.472;2023-05-07T02:24:06;3.78;;;2.50;;
29402;SDS011;16382;59.942;30.472;2023-05-07T02:26:33;2.83;;;2.35;;
29402;SDS011;16382;59.942;30.472;2023-05-07T02:29:00;6.38;;;2.90;;
29402;SDS011;16382;59.942;30.472;2023-05-07T02:31:28;4.15;;;2.78;;
29402;SDS011;16382;59.942;30.472;2023-05-07T02:33:56;3.67;;;2.08;;
29402;SDS011;16382;59.942;30.472;2023-05-07T02:36:23;4.28;;;2.30;;
29402;SDS011;16382;59.942;30.472;2023-05-07T02:39:12;2.78;;;2.47;;
29402;SDS011;16382;59.942;30.472;2023-05-07T02:41:40;4.18;;;2.20;;
29402;SDS011;16382;59.942;30.472;2023-05-07T02:44:08;6.45;;;2.42;;
29402;SDS011;16382;59.942;30.472;2023-05-07T02:46:36;4.38;;;2.63;;
29402;SDS011;16382;59.942;30.472;2023-05-07T02:49:09;3.38;;;2.35;;
29402;SDS011;16382;59.942;30.472;2023-05-07T02:51:36;4.20;;;2.20;;
29402;SDS011;16382;59.942;30.472;2023-05-07T02:56:36;3.90;;;2.08;;
29402;SDS011;16382;59.942;30.472;2023-05-07T02:59:03;3.65;;;1.77;;
29402;SDS011;16382;59.942;30.472;2023-05-07T03:01:36;3.05;;;2.05;;
29402;SDS011;16382;59.942;30.472;2023-05-07T03:04:06;7.20;;;2.33;;
29402;SDS011;16382;59.942;30.472;2023-05-07T03:06:34;7.30;;;2.70;;
29402;SDS011;16382;59.942;30.472;2023-05-07T03:09:01;5.00;;;2.28;;
29402;SDS011;16382;59.942;30.472;2023-05-07T03:11:29;6.47;;;2.30;;
29402;SDS011;16382;59.942;30.472;2023-05-07T03:13:57;3.63;;;2.17;;
29402;SDS011;16382;59.942;30.472;2023-05-07T03:16:24;3.65;;;2.35;;
29402;SDS011;16382;59.942;30.472;2023-05-07T03:18:52;3.42;;;2.28;;
29402;SDS011;16382;59.942;30.472;2023-05-07T03:21:19;7.85;;;2.67;;
29402;SDS011;16382;59.942;30.472;2023-05-07T03:23:48;4.47;;;2.35;;
29402;SDS011;16382;59.942;30.472;2023-05-07T03:26:15;3.80;;;2.10;;
29402;SDS011;16382;59.942;30.472;2023-05-07T03:28:44;3.30;;;2.17;;
29402;SDS011;16382;59.942;30.472;2023-05-07T03:31:13;3.97;;;2.50;;
29402;SDS011;16382;59.942;30.472;2023-05-07T03:33:49;4.80;;;2.30;;
29402;SDS011;16382;59.942;30.472;2023-05-07T03:36:17;4.68;;;2.33;;
29402;SDS011;16382;59.942;30.472;2023-05-07T03:38:45;2.25;;;1.92;;
29402;SDS011;16382;59.942;30.472;2023-05-07T03:41:16;5.35;;;2.50;;
29402;SDS011;16382;59.942;30.472;2023-05-07T03:43:45;3.13;;;2.30;;
29402;SDS011;16382;59.942;30.472;2023-05-07T03:46:12;5.93;;;2.47;;
29402;SDS011;16382;59.942;30.472;2023-05-07T03:48:40;4.70;;;3.08;;
29402;SDS011;16382;59.942;30.472;2023-05-07T03:51:09;5.03;;;2.40;;
29402;SDS011;16382;59.942;30.472;2023-05-07T03:53:36;3.67;;;2.33;;
29402;SDS011;16382;59.942;30.472;2023-05-07T03:56:03;4.47;;;2.58;;
29402;SDS011;16382;59.942;30.472;2023-05-07T03:58:36;4.63;;;2.42;;
29402;SDS011;16382;59.942;30.472;2023-05-07T04:01:07;12.02;;;2.40;;
29402;SDS011;16382;59.942;30.472;2023-05-07T04:03:35;7.63;;;2.72;;
29402;SDS011;16382;59.942;30.472;2023-05-07T04:06:02;4.80;;;2.40;;
29402;SDS011;16382;59.942;30.472;2023-05-07T04:08:33;6.50;;;2.47;;
29402;SDS011;16382;59.942;30.472;2023-05-07T04:11:01;3.85;;;2.00;;
29402;SDS011;16382;59.942;30.472;2023-05-07T04:13:31;6.47;;;2.38;;
29402;SDS011;16382;59.942;30.472;2023-05-07T04:16:02;4.05;;;2.38;;
29402;SDS011;16382;59.942;30.472;2023-05-07T04:18:32;3.53;;;2.10;;
29402;SDS011;16382;59.942;30.472;2023-05-07T04:21:00;3.80;;;2.10;;
29402;SDS011;16382;59.942;30.472;2023-05-07T04:23:27;5.13;;;1.90;;
29402;SDS011;16382;59.942;30.472;2023-05-07T04:25:57;2.60;;;2.10;;
29402;SDS011;16382;59.942;30.472;2023-05-07T04:28:36;4.32;;;2.20;;
29402;SDS011;16382;59.942;30.472;2023-05-07T04:31:07;5.47;;;2.47;;
29402;SDS011;16382;59.942;30.472;2023-05-07T04:33:36;4.00;;;2.15;;
29402;SDS011;16382;59.942;30.472;2023-05-07T04:36:06;2.08;;;1.77;;
29402;SDS011;16382;59.942;30.472;2023-05-07T04:38:40;2.67;;;1.73;;
29402;SDS011;16382;59.942;30.472;2023-05-07T04:41:08;3.13;;;2.13;;
29402;SDS011;16382;59.942;30.472;2023-05-07T04:43:39;3.85;;;1.90;;
29402;SDS011;16382;59.942;30.472;2023-05-07T04:46:08;3.85;;;1.65;;
29402;SDS011;16382;59.942;30.472;2023-05-07T04:48:36;2.20;;;1.70;;
29402;SDS011;16382;59.942;30.472;2023-05-07T04:51:05;5.97;;;2.13;;
29402;SDS011;16382;59.942;30.472;2023-05-07T04:53:32;5.07;;;2.13;;
29402;SDS011;16382;59.942;30.472;2023-05-07T04:56:00;6.13;;;1.60;;
29402;SDS011;16382;59.942;30.472;2023-05-07T04:58:37;3.42;;;2.35;;
29402;SDS011;16382;59.942;30.472;2023-05-07T05:01:04;3.38;;;1.75;;
29402;SDS011;16382;59.942;30.472;2023-05-07T05:03:33;6.00;;;1.92;;
29402;SDS011;16382;59.942;30.472;2023-05-07T05:06:01;6.88;;;1.63;;
29402;SDS011;16382;59.942;30.472;2023-05-07T05:08:32;3.47;;;1.33;;
29402;SDS011;16382;59.942;30.472;2023-05-07T05:11:01;2.45;;;1.60;;
29402;SDS011;16382;59.942;30.472;2023-05-07T05:13:30;5.55;;;1.45;;
29402;SDS011;16382;59.942;30.472;2023-05-07T05:15:58;6.75;;;1.63;;
29402;SDS011;16382;59.942;30.472;2023-05-07T05:18:27;4.15;;;1.98;;
29402;SDS011;16382;59.942;30.472;2023-05-07T05:20:56;4.68;;;2.08;;
29402;SDS011;16382;59.942;30.472;2023-05-07T05:23:23;6.72;;;1.40;;
29402;SDS011;16382;59.942;30.472;2023-05-07T05:25:54;3.55;;;1.77;;
29402;SDS011;16382;59.942;30.472;2023-05-07T05:28:24;4.53;;;1.70;;
29402;SDS011;16382;59.942;30.472;2023-05-07T05:30:53;6.65;;;2.00;;
29402;SDS011;16382;59.942;30.472;2023-05-07T05:33:22;4.90;;;2.38;;
29402;SDS011;16382;59.942;30.472;2023-05-07T05:35:49;3.78;;;2.50;;
29402;SDS011;16382;59.942;30.472;2023-05-07T05:38:18;4.38;;;2.35;;
29402;SDS011;16382;59.942;30.472;2023-05-07T05:40:47;5.53;;;2.85;;
29402;SDS011;16382;59.942;30.472;2023-05-07T05:43:14;4.43;;;2.20;;
29402;SDS011;16382;59.942;30.472;2023-05-07T05:45:42;5.35;;;2.10;;
29402;SDS011;16382;59.942;30.472;2023-05-07T05:48:09;2.40;;;2.20;;
29402;SDS011;16382;59.942;30.472;2023-05-07T05:50:37;3.00;;;2.70;;
29402;SDS011;16382;59.942;30.472;2023-05-07T05:53:06;2.95;;;2.42;;
29402;SDS011;16382;59.942;30.472;2023-05-07T05:55:35;6.07;;;2.45;;
29402;SDS011;16382;59.942;30.472;2023-05-07T05:58:03;3.50;;;2.60;;
29402;SDS011;16382;59.942;30.472;2023-05-07T06:00:36;4.13;;;2.03;;
29402;SDS011;16382;59.942;30.472;2023-05-07T06:03:05;5.00;;;2.00;;
29402;SDS011;16382;59.942;30.472;2023-05-07T06:05:34;6.57;;;2.22;;
29402;SDS011;16382;59.942;30.472;2023-05-07T06:08:01;4.50;;;2.28;;
29402;SDS011;16382;59.942;30.472;2023-05-07T06:10:32;8.15;;;2.05;;
29402;SDS011;16382;59.942;30.472;2023-05-07T06:13:01;1.92;;;1.38;;
29402;SDS011;16382;59.942;30.472;2023-05-07T06:15:30;3.20;;;1.67;;
29402;SDS011;16382;59.942;30.472;2023-05-07T06:18:11;3.08;;;1.67;;
29402;SDS011;16382;59.942;30.472;2023-05-07T06:20:40;7.57;;;2.28;;
29402;SDS011;16382;59.942;30.472;2023-05-07T06:23:13;7.03;;;1.80;;
29402;SDS011;16382;59.942;30.472;2023-05-07T06:25:41;2.67;;;1.60;;
29402;SDS011;16382;59.942;30.472;2023-05-07T06:28:10;6.63;;;2.25;;
29402;SDS011;16382;59.942;30.472;2023-05-07T06:30:39;2.38;;;1.60;;
29402;SDS011;16382;59.942;30.472;2023-05-07T06:33:07;4.82;;;1.77;;
29402;SDS011;16382;59.942;30.472;2023-05-07T06:35:35;5.70;;;1.77;;
29402;SDS011;16382;59.942;30.472;2023-05-07T06:38:03;2.70;;;1.55;;
29402;SDS011;16382;59.942;30.472;2023-05-07T06:40:31;3.58;;;2.90;;
29402;SDS011;16382;59.942;30.472;2023-05-07T06:42:59;7.28;;;1.98;;
29402;SDS011;16382;59.942;30.472;2023-05-07T06:45:42;2.03;;;1.50;;
29402;SDS011;16382;59.942;30.472;2023-05-07T06:48:10;3.85;;;1.40;;
29402;SDS011;16382;59.942;30.472;2023-05-07T06:50:47;3.20;;;1.40;;
29402;SDS011;16382;59.942;30.472;2023-05-07T06:53:16;2.70;;;1.83;;
29402;SDS011;16382;59.942;30.472;2023-05-07T06:55:48;4.38;;;1.67;;
29402;SDS011;16382;59.942;30.472;2023-05-07T06:58:18;3.25;;;1.70;;
29402;SDS011;16382;59.942;30.472;2023-05-07T07:00:48;7.88;;;2.45;;
29402;SDS011;16382;59.942;30.472;2023-05-07T07:03:15;2.08;;;1.77;;
29402;SDS011;16382;59.942;30.472;2023-05-07T07:05:44;3.63;;;1.15;;
29402;SDS011;16382;59.942;30.472;2023-05-07T07:08:12;9.73;;;1.92;;
29402;SDS011;16382;59.942;30.472;2023-05-07T07:10:40;1.40;;;1.30;;
29402;SDS011;16382;59.942;30.472;2023-05-07T07:13:08;3.92;;;1.77;;
29402;SDS011;16382;59.942;30.472;2023-05-07T07:15:35;4.22;;;2.15;;
29402;SDS011;16382;59.942;30.472;2023-05-07T07:18:04;2.30;;;2.10;;
29402;SDS011;16382;59.942;30.472;2023-05-07T07:20:32;6.70;;;2.20;;
29402;SDS011;16382;59.942;30.472;2023-05-07T07:22:59;5.63;;;1.98;;
29402;SDS011;16382;59.942;30.472;2023-05-07T07:25:27;15.45;;;2.40;;
29402;SDS011;16382;59.942;30.472;2023-05-07T07:27:58;4.43;;;1.50;;
29402;SDS011;16382;59.942;30.472;2023-05-07T07:33:59;3.88;;;1.25;;
29402;SDS011;16382;59.942;30.472;2023-05-07T07:36:27;1.80;;;1.10;;
29402;SDS011;16382;59.942;30.472;2023-05-07T07:38:56;4.45;;;1.60;;
29402;SDS011;16382;59.942;30.472;2023-05-07T07:41:23;3.67;;;1.20;;
29402;SDS011;16382;59.942;30.472;2023-05-07T07:43:52;1.50;;;1.40;;
29402;SDS011;16382;59.942;30.472;2023-05-07T07:46:20;2.58;;;1.60;;
29402;SDS011;16382;59.942;30.472;2023-05-07T07:48:48;5.50;;;1.60;;
29402;SDS011;16382;59.942;30.472;2023-05-07T07:51:17;2.13;;;1.10;;
29402;SDS011;16382;59.942;30.472;2023-05-07T07:53:45;3.17;;;1.30;;
29402;SDS011;16382;59.942;30.472;2023-05-07T07:56:13;2.88;;;1.00;;
29402;SDS011;16382;59.942;30.472;2023-05-07T07:58:41;1.90;;;1.80;;
29402;SDS011;16382;59.942;30.472;2023-05-07T08:01:09;2.58;;;1.45;;
29402;SDS011;16382;59.942;30.472;2023-05-07T08:03:38;1.02;;;0.80;;
29402;SDS011;16382;59.942;30.472;2023-05-07T08:06:05;1.27;;;1.10;;
29402;SDS011;16382;59.942;30.472;2023-05-07T08:08:36;1.77;;;1.10;;
29402;SDS011;16382;59.942;30.472;2023-05-07T08:11:04;4.55;;;0.85;;
29402;SDS011;16382;59.942;30.472;2023-05-07T08:13:34;3.38;;;1.20;;
29402;SDS011;16382;59.942;30.472;2023-05-07T08:16:03;4.63;;;1.08;;
29402;SDS011;16382;59.942;30.472;2023-05-07T08:18:33;1.75;;;1.15;;
29402;SDS011;16382;59.942;30.472;2023-05-07T08:21:02;1.25;;;0.90;;
29402;SDS011;16382;59.942;30.472;2023-05-07T08:23:31;1.25;;;1.08;;
29402;SDS011;16382;59.942;30.472;2023-05-07T08:26:01;1.98;;;1.20;;
29402;SDS011;16382;59.942;30.472;2023-05-07T08:28:29;1.65;;;1.55;;
29402;SDS011;16382;59.942;30.472;2023-05-07T08:30:57;2.85;;;1.90;;
29402;SDS011;16382;59.942;30.472;2023-05-07T08:33:27;3.13;;;1.63;;
29402;SDS011;16382;59.942;30.472;2023-05-07T08:35:55;2.13;;;1.90;;
29402;SDS011;16382;59.942;30.472;2023-05-07T08:38:23;6.68;;;2.40;;
29402;SDS011;16382;59.942;30.472;2023-05-07T08:40:50;3.85;;;1.77;;
29402;SDS011;16382;59.942;30.472;2023-05-07T08:43:24;2.78;;;1.42;;
29402;SDS011;16382;59.942;30.472;2023-05-07T08:45:54;1.65;;;1.35;;
29402;SDS011;16382;59.942;30.472;2023-05-07T08:48:27;7.80;;;3.30;;
29402;SDS011;16382;59.942;30.472;2023-05-07T08:51:05;2.30;;;1.50;;
29402;SDS011;16382;59.942;30.472;2023-05-07T08:53:34;8.38;;;1.38;;
29402;SDS011;16382;59.942;30.472;2023-05-07T08:56:03;3.50;;;1.27;;
29402;SDS011;16382;59.942;30.472;2023-05-07T08:58:33;8.30;;;2.15;;
29402;SDS011;16382;59.942;30.472;2023-05-07T09:01:01;2.65;;;1.20;;
29402;SDS011;16382;59.942;30.472;2023-05-07T09:03:33;4.43;;;1.50;;
29402;SDS011;16382;59.942;30.472;2023-05-07T09:06:01;3.03;;;1.58;;
29402;SDS011;16382;59.942;30.472;2023-05-07T09:08:29;4.97;;;1.25;;
29402;SDS011;16382;59.942;30.472;2023-05-07T09:11:00;3.08;;;1.73;;
29402;SDS011;16382;59.942;30.472;2023-05-07T09:13:30;1.90;;;1.30;;
29402;SDS011;16382;59.942;30.472;2023-05-07T09:16:10;2.17;;;1.03;;
29402;SDS011;16382;59.942;30.472;2023-05-07T09:18:41;2.30;;;0.90;;
29402;SDS011;16382;59.942;30.472;2023-05-07T09:21:10;3.00;;;1.42;;
29402;SDS011;16382;59.942;30.472;2023-05-07T09:23:38;1.52;;;1.10;;
29402;SDS011;16382;59.942;30.472;2023-05-07T09:26:06;7.68;;;1.10;;
29402;SDS011;16382;59.942;30.472;2023-05-07T09:28:38;3.57;;;1.03;;
29402;SDS011;16382;59.942;30.472;2023-05-07T09:31:08;1.83;;;1.10;;
29402;SDS011;16382;59.942;30.472;2023-05-07T09:33:39;1.50;;;0.90;;
29402;SDS011;16382;59.942;30.472;2023-05-07T09:36:18;4.43;;;0.68;;
29402;SDS011;16382;59.942;30.472;2023-05-07T09:38:45;2.78;;;1.63;;
29402;SDS011;16382;59.942;30.472;2023-05-07T09:41:23;1.30;;;1.20;;
29402;SDS011;16382;59.942;30.472;2023-05-07T09:44:02;4.38;;;1.17;;
29402;SDS011;16382;59.942;30.472;2023-05-07T09:46:38;2.05;;;0.95;;
29402;SDS011;16382;59.942;30.472;2023-05-07T09:49:20;6.35;;;1.67;;
29402;SDS011;16382;59.942;30.472;2023-05-07T09:51:56;6.88;;;0.80;;
29402;SDS011;16382;59.942;30.472;2023-05-07T09:54:26;3.35;;;0.90;;
29402;SDS011;16382;59.942;30.472;2023-05-07T09:56:55;4.95;;;0.77;;
29402;SDS011;16382;59.942;30.472;2023-05-07T09:59:26;2.85;;;0.70;;
29402;SDS011;16382;59.942;30.472;2023-05-07T10:01:56;1.02;;;0.50;;
29402;SDS011;16382;59.942;30.472;2023-05-07T10:04:25;8.10;;;1.13;;
29402;SDS011;16382;59.942;30.472;2023-05-07T10:06:53;1.80;;;0.70;;
29402;SDS011;16382;59.942;30.472;2023-05-07T10:09:21;3.45;;;1.27;;
29402;SDS011;16382;59.942;30.472;2023-05-07T10:11:51;2.63;;;0.88;;
29402;SDS011;16382;59.942;30.472;2023-05-07T10:14:21;2.50;;;1.00;;
29402;SDS011;16382;59.942;30.472;2023-05-07T10:16:49;2.08;;;0.75;;
29402;SDS011;16382;59.942;30.472;2023-05-07T10:19:19;6.05;;;0.70;;
29402;SDS011;16382;59.942;30.472;2023-05-07T10:21:54;1.63;;;0.50;;
29402;SDS011;16382;59.942;30.472;2023-05-07T10:24:25;5.28;;;0.95;;
29402;SDS011;16382;59.942;30.472;2023-05-07T10:26:57;4.63;;;1.20;;
29402;SDS011;16382;59.942;30.472;2023-05-07T10:29:29;1.15;;;0.70;;
29402;SDS011;16382;59.942;30.472;2023-05-07T10:32:09;1.40;;;0.85;;
29402;SDS011;16382;59.942;30.472;2023-05-07T10:34:58;3.17;;;0.73;;
29402;SDS011;16382;59.942;30.472;2023-05-07T10:37:30;2.25;;;0.98;;
29402;SDS011;16382;59.942;30.472;2023-05-07T10:39:58;1.27;;;0.80;;
29402;SDS011;16382;59.942;30.472;2023-05-07T10:42:31;3.28;;;1.10;;
29402;SDS011;16382;59.942;30.472;2023-05-07T10:45:13;2.75;;;0.85;;
29402;SDS011;16382;59.942;30.472;2023-05-07T10:50:45;2.17;;;1.02;;
29402;SDS011;16382;59.942;30.472;2023-05-07T10:53:22;1.13;;;0.70;;
29402;SDS011;16382;59.942;30.472;2023-05-07T10:59:30;1.60;;;0.70;;
29402;SDS011;16382;59.942;30.472;2023-05-07T11:02:07;5.38;;;1.50;;
29402;SDS011;16382;59.942;30.472;2023-05-07T11:05:18;1.25;;;0.70;;
29402;SDS011;16382;59.942;30.472;2023-05-07T11:07:55;4.45;;;4.03;;
29402;SDS011;16382;59.942;30.472;2023-05-07T11:13:41;4.97;;;0.95;;
29402;SDS011;16382;59.942;30.472;2023-05-07T11:16:17;3.38;;;1.10;;
29402;SDS011;16382;59.942;30.472;2023-05-07T11:18:49;2.15;;;0.73;;
29402;SDS011;16382;59.942;30.472;2023-05-07T11:21:33;3.40;;;1.30;;
29402;SDS011;16382;59.942;30.472;2023-05-07T11:24:11;1.65;;;1.10;;
29402;SDS011;16382;59.942;30.472;2023-05-07T11:26:58;3.53;;;2.60;;
29402;SDS011;16382;59.942;30.472;2023-05-07T11:29:26;1.25;;;0.93;;
29402;SDS011;16382;59.942;30.472;2023-05-07T11:32:01;1.65;;;1.15;;
29402;SDS011;16382;59.942;30.472;2023-05-07T11:34:34;1.77;;;1.40;;
29402;SDS011;16382;59.942;30.472;2023-05-07T11:37:01;4.68;;;1.15;;
29402;SDS011;16382;59.942;30.472;2023-05-07T11:39:49;1.55;;;0.85;;
29402;SDS011;16382;59.942;30.472;2023-05-07T11:42:27;1.15;;;0.93;;
29402;SDS011;16382;59.942;30.472;2023-05-07T11:44:54;3.42;;;0.73;;
29402;SDS011;16382;59.942;30.472;2023-05-07T11:47:21;1.17;;;1.00;;
29402;SDS011;16382;59.942;30.472;2023-05-07T11:49:49;1.77;;;0.60;;
29402;SDS011;16382;59.942;30.472;2023-05-07T11:52:18;2.95;;;1.20;;
29402;SDS011;16382;59.942;30.472;2023-05-07T11:54:51;5.32;;;3.70;;
29402;SDS011;16382;59.942;30.472;2023-05-07T11:57:20;1.90;;;1.00;;
29402;SDS011;16382;59.942;30.472;2023-05-07T11:59:48;4.55;;;0.80;;
29402;SDS011;16382;59.942;30.472;2023-05-07T12:02:19;2.50;;;1.40;;
29402;SDS011;16382;59.942;30.472;2023-05-07T12:04:46;1.88;;;1.45;;
29402;SDS011;16382;59.942;30.472;2023-05-07T12:07:14;0.85;;;0.82;;
29402;SDS011;16382;59.942;30.472;2023-05-07T12:09:44;13.23;;;2.05;;
29402;SDS011;16382;59.942;30.472;2023-05-07T12:12:14;1.30;;;1.10;;
29402;SDS011;16382;59.942;30.472;2023-05-07T12:14:43;2.83;;;0.73;;
29402;SDS011;16382;59.942;30.472;2023-05-07T12:17:13;2.17;;;1.25;;
29402;SDS011;16382;59.942;30.472;2023-05-07T12:19:41;7.35;;;3.63;;
29402;SDS011;16382;59.942;30.472;2023-05-07T12:22:09;1.70;;;1.27;;
29402;SDS011;16382;59.942;30.472;2023-05-07T12:24:47;1.20;;;1.10;;
29402;SDS011;16382;59.942;30.472;2023-05-07T12:27:17;6.78;;;4.60;;
29402;SDS011;16382;59.942;30.472;2023-05-07T12:29:46;1.60;;;1.38;;
29402;SDS011;16382;59.942;30.472;2023-05-07T12:32:13;0.93;;;0.80;;
29402;SDS011;16382;59.942;30.472;2023-05-07T12:34:41;2.25;;;1.00;;
29402;SDS011;16382;59.942;30.472;2023-05-07T12:37:09;2.47;;;0.95;;
29402;SDS011;16382;59.942;30.472;2023-05-07T12:39:38;4.35;;;0.82;;
29402;SDS011;16382;59.942;30.472;2023-05-07T12:42:10;2.05;;;1.20;;
29402;SDS011;16382;59.942;30.472;2023-05-07T12:44:49;4.78;;;2.13;;
29402;SDS011;16382;59.942;30.472;2023-05-07T12:47:17;2.95;;;1.58;;
29402;SDS011;16382;59.942;30.472;2023-05-07T12:49:44;1.15;;;1.00;;
29402;SDS011;16382;59.942;30.472;2023-05-07T12:52:12;5.45;;;1.08;;
29402;SDS011;16382;59.942;30.472;2023-05-07T12:54:40;1.05;;;0.82;;
29402;SDS011;16382;59.942;30.472;2023-05-07T12:57:08;1.48;;;0.88;;
29402;SDS011;16382;59.942;30.472;2023-05-07T12:59:38;2.83;;;0.70;;
29402;SDS011;16382;59.942;30.472;2023-05-07T13:02:06;1.85;;;0.90;;
29402;SDS011;16382;59.942;30.472;2023-05-07T13:04:38;6.55;;;0.80;;
29402;SDS011;16382;59.942;30.472;2023-05-07T13:07:06;3.10;;;0.75;;
29402;SDS011;16382;59.942;30.472;2023-05-07T13:09:33;2.05;;;0.85;;
29402;SDS011;16382;59.942;30.472;2023-05-07T13:12:04;2.25;;;0.70;;
29402;SDS011;16382;59.942;30.472;2023-05-07T13:14:31;2.10;;;1.00;;
29402;SDS011;16382;59.942;30.472;2023-05-07T13:17:00;2.40;;;1.33;;
29402;SDS011;16382;59.942;30.472;2023-05-07T13:19:27;3.08;;;1.08;;
29402;SDS011;16382;59.942;30.472;2023-05-07T13:21:55;2.78;;;1.08;;
29402;SDS011;16382;59.942;30.472;2023-05-07T13:24:31;2.45;;;1.13;;
29402;SDS011;16382;59.942;30.472;2023-05-07T13:27:07;6.65;;;4.10;;
29402;SDS011;16382;59.942;30.472;2023-05-07T13:29:35;1.70;;;1.10;;
29402;SDS011;16382;59.942;30.472;2023-05-07T13:32:07;2.95;;;1.10;;
29402;SDS011;16382;59.942;30.472;2023-05-07T13:34:34;2.67;;;1.73;;
29402;SDS011;16382;59.942;30.472;2023-05-07T13:37:02;3.70;;;1.10;;
29402;SDS011;16382;59.942;30.472;2023-05-07T13:39:29;1.10;;;1.00;;
29402;SDS011;16382;59.942;30.472;2023-05-07T13:41:57;2.65;;;1.85;;
29402;SDS011;16382;59.942;30.472;2023-05-07T13:44:24;1.35;;;1.13;;
29402;SDS011;16382;59.942;30.472;2023-05-07T13:46:51;5.45;;;1.77;;
29402;SDS011;16382;59.942;30.472;2023-05-07T13:49:20;3.30;;;1.33;;
29402;SDS011;16382;59.942;30.472;2023-05-07T13:51:47;1.45;;;1.02;;
29402;SDS011;16382;59.942;30.472;2023-05-07T13:54:15;3.22;;;1.77;;
29402;SDS011;16382;59.942;30.472;2023-05-07T13:56:42;3.80;;;1.40;;
29402;SDS011;16382;59.942;30.472;2023-05-07T13:59:09;13.18;;;10.13;;
29402;SDS011;16382;59.942;30.472;2023-05-07T14:01:37;9.65;;;7.15;;
29402;SDS011;16382;59.942;30.472;2023-05-07T14:04:08;3.95;;;1.90;;
29402;SDS011;16382;59.942;30.472;2023-05-07T14:06:37;6.40;;;1.50;;
29402;SDS011;16382;59.942;30.472;2023-05-07T14:09:05;7.30;;;1.10;;
29402;SDS011;16382;59.942;30.472;2023-05-07T14:11:32;4.38;;;1.15;;
29402;SDS011;16382;59.942;30.472;2023-05-07T14:14:00;1.25;;;1.00;;
29402;SDS011;16382;59.942;30.472;2023-05-07T14:16:27;2.35;;;1.27;;
29402;SDS011;16382;59.942;30.472;2023-05-07T14:18:54;4.53;;;0.85;;
29402;SDS011;16382;59.942;30.472;2023-05-07T14:21:21;5.90;;;4.47;;
29402;SDS011;16382;59.942;30.472;2023-05-07T14:23:50;4.57;;;1.73;;
29402;SDS011;16382;59.942;30.472;2023-05-07T14:26:17;2.92;;;1.25;;
29402;SDS011;16382;59.942;30.472;2023-05-07T14:28:46;4.97;;;1.90;;
29402;SDS011;16382;59.942;30.472;2023-05-07T14:31:13;7.18;;;1.17;;
29402;SDS011;16382;59.942;30.472;2023-05-07T14:33:40;1.95;;;1.10;;
29402;SDS011;16382;59.942;30.472;2023-05-07T14:36:08;2.08;;;1.27;;
29402;SDS011;16382;59.942;30.472;2023-05-07T14:38:37;2.22;;;1.60;;
29402;SDS011;16382;59.942;30.472;2023-05-07T14:41:06;4.72;;;1.58;;
29402;SDS011;16382;59.942;30.472;2023-05-07T14:43:34;4.25;;;1.80;;
29402;SDS011;16382;59.942;30.472;2023-05-07T14:46:01;3.28;;;1.30;;
29402;SDS011;16382;59.942;30.472;2023-05-07T14:48:29;6.80;;;1.60;;
29402;SDS011;16382;59.942;30.472;2023-05-07T14:50:56;3.03;;;1.30;;
29402;SDS011;16382;59.942;30.472;2023-05-07T14:53:23;1.10;;;1.10;;
29402;SDS011;16382;59.942;30.472;2023-05-07T14:55:50;1.15;;;1.05;;
29402;SDS011;16382;59.942;30.472;2023-05-07T14:58:19;2.60;;;1.10;;
29402;SDS011;16382;59.942;30.472;2023-05-07T15:00:46;3.97;;;1.17;;
29402;SDS011;16382;59.942;30.472;2023-05-07T15:03:14;4.82;;;1.30;;
29402;SDS011;16382;59.942;30.472;2023-05-07T15:05:43;1.65;;;1.20;;